Time;durP1;ratioP1;P1;durP2;ratioP2;P2;SDS_P1;SDS_P2;PMS_P1;PMS_P2;Temp;Humidity;BMP_temperature;BMP_pressure;BME280_temperature;BME280_humidity;BME280_pressure;Samples;Min_cycle;Max_cycle;Signal;HPM_P1;HPM_P2
2022/10/26 00:02:25;;;;;;;;;;;10.10;99.90;;;;;;5010608;28;19933;-74
2022/10/26 00:04:57;;;;;;;;;;;10.00;99.90;;;;;;4990949;28;19936;-75
2022/10/26 00:07:29;;;;;;;;;;;10.00;99.90;;;;;;5007990;28;19930;-74
2022/10/26 00:10:00;;;;;;;;;;;10.10;99.90;;;;;;5010688;28;20340;-74
2022/10/26 00:12:32;;;;;;;;;;;10.00;99.90;;;;;;4992748;28;19929;-75
2022/10/26 00:15:03;;;;;;;;;;;10.00;99.90;;;;;;5011819;28;19930;-74
2022/10/26 00:17:35;;;;;;;;;;;10.00;99.90;;;;;;5009156;28;19976;-75
2022/10/26 00:20:07;;;;;;;;;;;9.90;99.90;;;;;;4989188;28;19932;-74
2022/10/26 00:22:38;;;;;;;;;;;9.90;99.90;;;;;;4991516;28;19926;-75
2022/10/26 00:25:10;;;;;;;;;;;9.90;99.90;;;;;;5011431;28;20049;-74
2022/10/26 00:27:42;;;;;;;;;;;10.00;99.90;;;;;;5025427;28;19935;-74
2022/10/26 00:30:13;;;;;;;;;;;9.90;99.90;;;;;;4992717;28;19925;-75
2022/10/26 00:32:45;;;;;;;;;;;10.00;99.90;;;;;;5011574;28;19929;-74
2022/10/26 00:35:16;;;;;;;;;;;10.00;99.90;;;;;;5024951;28;19972;-73
2022/10/26 00:37:52;;;;;;;;;;;10.10;99.90;;;;;;5010849;28;20328;-74
2022/10/26 00:40:28;;;;;;;;;;;10.10;99.90;;;;;;5010058;28;19956;-74
2022/10/26 00:43:00;;;;;;;;;;;10.10;99.90;;;;;;4994297;28;19984;-75
2022/10/26 00:45:32;;;;;;;;;;;10.10;99.90;;;;;;4991049;28;20344;-73
2022/10/26 00:48:06;;;;;;;;;;;10.10;99.90;;;;;;5007821;28;19930;-75
2022/10/26 00:50:41;;;;;;;;;;;10.10;99.90;;;;;;5025296;28;19976;-73
2022/10/26 00:53:12;;;;;;;;;;;10.10;99.90;;;;;;5007984;28;20303;-76
2022/10/26 00:55:46;;;;;;;;;;;10.10;99.90;;;;;;5007403;28;19925;-75
2022/10/26 00:58:19;;;;;;;;;;;10.10;99.90;;;;;;5024658;28;20000;-76
2022/10/26 01:00:51;;;;;;;;;;;10.10;99.90;;;;;;4993559;28;19929;-74
2022/10/26 01:03:26;;;;;;;;;;;10.10;99.90;;;;;;5025317;28;19929;-75
2022/10/26 01:05:58;;;;;;;;;;;10.10;99.90;;;;;;5005431;28;19937;-73
2022/10/26 01:08:30;;;;;;;;;;;10.10;99.90;;;;;;5010792;28;19955;-74
2022/10/26 01:11:02;;;;;;;;;;;10.10;99.90;;;;;;5009769;28;19929;-75
2022/10/26 01:13:34;;;;;;;;;;;10.10;99.90;;;;;;4999195;28;20466;-74
2022/10/26 01:16:15;;;;;;;;;;;10.10;99.90;;;;;;5024527;28;19929;-74
2022/10/26 01:18:56;;;;;;;;;;;10.20;99.90;;;;;;4992585;28;19925;-76
2022/10/26 01:21:31;;;;;;;;;;;10.20;99.90;;;;;;5025760;28;19930;-73
2022/10/26 01:24:16;;;;;;;;;;;10.30;99.90;;;;;;4978596;28;19926;-75
2022/10/26 01:27:08;;;;;;;;;;;10.30;99.90;;;;;;5009517;28;20343;-73
2022/10/26 01:29:43;;;;;;;;;;;10.30;99.90;;;;;;5021836;28;19925;-74
2022/10/26 01:32:22;;;;;;;;;;;10.30;99.90;;;;;;4992309;28;19933;-74
2022/10/26 01:34:58;;;;;;;;;;;10.20;99.90;;;;;;5001214;28;19992;-73
2022/10/26 01:37:31;;;;;;;;;;;10.20;99.90;;;;;;5023630;28;19925;-73
2022/10/26 01:40:19;;;;;;;;;;;10.10;99.90;;;;;;5024338;28;19932;-72
2022/10/26 01:42:52;;;;;;;;;;;10.10;99.90;;;;;;4968366;28;19989;-73
2022/10/26 01:45:24;;;;;;;;;;;10.10;99.90;;;;;;5009515;28;19925;-74
2022/10/26 01:47:58;;;;;;;;;;;10.10;99.90;;;;;;5005741;28;19930;-74
2022/10/26 01:50:29;;;;;;;;;;;10.10;99.90;;;;;;4991176;28;20557;-75
2022/10/26 01:53:01;;;;;;;;;;;10.10;99.90;;;;;;5001666;28;19932;-75
2022/10/26 01:55:43;;;;;;;;;;;10.10;99.90;;;;;;5022746;28;19930;-75
2022/10/26 01:58:33;;;;;;;;;;;10.10;99.90;;;;;;5002962;28;20388;-74
2022/10/26 02:01:25;;;;;;;;;;;10.10;99.90;;;;;;5000829;28;19926;-74
2022/10/26 02:04:13;;;;;;;;;;;10.20;99.90;;;;;;4958273;28;19926;-74
2022/10/26 02:06:48;;;;;;;;;;;10.20;99.90;;;;;;5008462;28;19926;-73
2022/10/26 02:09:31;;;;;;;;;;;10.20;99.90;;;;;;5009226;28;19929;-75
2022/10/26 02:12:08;;;;;;;;;;;10.20;99.90;;;;;;5024187;28;19929;-74
2022/10/26 02:14:43;;;;;;;;;;;10.20;99.90;;;;;;5024886;28;19929;-73
2022/10/26 02:17:23;;;;;;;;;;;10.30;99.90;;;;;;5004793;28;19929;-75
2022/10/26 02:19:59;;;;;;;;;;;10.30;99.90;;;;;;5007522;28;19926;-75
2022/10/26 02:22:38;;;;;;;;;;;10.30;99.90;;;;;;4985171;28;19932;-74
2022/10/26 02:25:13;;;;;;;;;;;10.40;99.90;;;;;;4990178;28;19925;-74
2022/10/26 02:27:54;;;;;;;;;;;10.40;99.90;;;;;;5023842;28;19972;-73
2022/10/26 02:30:25;;;;;;;;;;;10.40;99.90;;;;;;5005798;28;19996;-74
2022/10/26 02:32:57;;;;;;;;;;;10.40;99.90;;;;;;4992767;28;19925;-75
2022/10/26 02:35:30;;;;;;;;;;;10.40;99.90;;;;;;5007918;28;19925;-73
2022/10/26 02:38:03;;;;;;;;;;;10.40;99.90;;;;;;5024105;28;20458;-74
2022/10/26 02:40:36;;;;;;;;;;;10.40;99.90;;;;;;4992587;28;19925;-74
2022/10/26 02:43:10;;;;;;;;;;;10.40;99.90;;;;;;5007026;28;19926;-73
2022/10/26 02:45:44;;;;;;;;;;;10.40;99.90;;;;;;4992521;28;20438;-74
2022/10/26 02:48:16;;;;;;;;;;;10.40;99.90;;;;;;5000927;28;19933;-74
2022/10/26 02:51:03;;;;;;;;;;;10.40;99.90;;;;;;5008985;28;19933;-74
2022/10/26 02:53:39;;;;;;;;;;;10.40;99.90;;;;;;4988768;28;20446;-74
2022/10/26 02:56:16;;;;;;;;;;;10.50;99.90;;;;;;5009381;28;20343;-74
2022/10/26 02:58:50;;;;;;;;;;;10.40;99.90;;;;;;5021129;28;19925;-75
2022/10/26 03:01:22;;;;;;;;;;;10.40;99.90;;;;;;5022904;28;19955;-74
2022/10/26 03:03:57;;;;;;;;;;;10.40;99.90;;;;;;5009810;28;19984;-74
2022/10/26 03:06:28;;;;;;;;;;;10.50;99.90;;;;;;5005550;28;19972;-74
2022/10/26 03:09:00;;;;;;;;;;;10.40;99.90;;;;;;4975550;28;19976;-74
2022/10/26 03:11:32;;;;;;;;;;;10.40;99.90;;;;;;4993250;28;19925;-74
2022/10/26 03:14:03;;;;;;;;;;;10.40;99.90;;;;;;5007189;28;19930;-74
2022/10/26 03:16:35;;;;;;;;;;;10.40;99.90;;;;;;5007321;28;19925;-75
2022/10/26 03:19:06;;;;;;;;;;;10.50;99.90;;;;;;5009224;28;19968;-76
2022/10/26 03:21:38;;;;;;;;;;;10.40;99.90;;;;;;5022349;28;19930;-77
2022/10/26 03:24:09;;;;;;;;;;;10.40;99.90;;;;;;5013269;28;19936;-74
2022/10/26 03:26:41;;;;;;;;;;;10.40;99.90;;;;;;4993664;28;19937;-76
2022/10/26 03:29:12;;;;;;;;;;;10.50;99.90;;;;;;5008668;28;19926;-77
2022/10/26 03:31:44;;;;;;;;;;;10.50;99.90;;;;;;5010937;28;19980;-76
2022/10/26 03:34:16;;;;;;;;;;;10.40;99.90;;;;;;5006862;28;19926;-72
2022/10/26 03:36:47;;;;;;;;;;;10.40;99.90;;;;;;5024731;28;19925;-76
2022/10/26 03:39:19;;;;;;;;;;;10.30;99.90;;;;;;5010888;28;19949;-76
2022/10/26 03:41:50;;;;;;;;;;;10.30;99.90;;;;;;5012795;28;19925;-75
2022/10/26 03:44:22;;;;;;;;;;;10.30;99.90;;;;;;5027215;28;19989;-76
2022/10/26 03:46:54;;;;;;;;;;;10.20;99.90;;;;;;5027530;28;20355;-76
2022/10/26 03:49:25;;;;;;;;;;;10.20;99.90;;;;;;5009365;28;19929;-75
2022/10/26 03:51:57;;;;;;;;;;;10.10;99.90;;;;;;5010453;28;19929;-76
2022/10/26 03:54:28;;;;;;;;;;;10.10;99.90;;;;;;5023145;28;19925;-75
2022/10/26 03:57:00;;;;;;;;;;;10.10;99.90;;;;;;5027003;28;19984;-74
2022/10/26 03:59:31;;;;;;;;;;;10.10;99.90;;;;;;5011336;28;19930;-75
2022/10/26 04:02:03;;;;;;;;;;;10.20;99.90;;;;;;4993974;28;19925;-77
2022/10/26 04:04:34;;;;;;;;;;;10.20;99.90;;;;;;5010899;28;19980;-76
2022/10/26 04:07:06;;;;;;;;;;;10.20;99.90;;;;;;5023228;28;19925;-76
2022/10/26 04:09:37;;;;;;;;;;;10.20;99.90;;;;;;4983277;28;19934;-75
2022/10/26 04:12:09;;;;;;;;;;;10.20;99.90;;;;;;5011947;28;19958;-77
2022/10/26 04:14:40;;;;;;;;;;;10.20;99.90;;;;;;5011366;28;20340;-74
2022/10/26 04:17:12;;;;;;;;;;;10.20;99.90;;;;;;5023272;28;19930;-78
2022/10/26 04:19:44;;;;;;;;;;;10.20;99.90;;;;;;5024373;28;19926;-73
2022/10/26 04:22:15;;;;;;;;;;;10.20;99.90;;;;;;5024517;28;19972;-73
2022/10/26 04:24:48;;;;;;;;;;;10.20;99.90;;;;;;4982474;28;19980;-76
2022/10/26 04:27:20;;;;;;;;;;;10.20;99.90;;;;;;4993752;28;19991;-75
2022/10/26 04:29:46;;;;;;;;;;;10.20;99.90;;;;;;4993126;28;19929;-76
2022/10/26 04:32:18;;;;;;;;;;;10.20;99.90;;;;;;5010386;28;19948;-75
2022/10/26 04:34:52;;;;;;;;;;;10.30;99.90;;;;;;4993073;28;19925;-73
2022/10/26 04:37:23;;;;;;;;;;;10.30;99.90;;;;;;5000993;28;20019;-74
2022/10/26 04:39:55;;;;;;;;;;;10.30;99.90;;;;;;5010212;28;19930;-72
2022/10/26 04:42:26;;;;;;;;;;;10.40;99.90;;;;;;5020864;28;19963;-73
2022/10/26 04:44:58;;;;;;;;;;;10.40;99.90;;;;;;5025507;28;20363;-75
2022/10/26 04:47:30;;;;;;;;;;;10.40;99.90;;;;;;4993722;28;19929;-76
2022/10/26 04:50:02;;;;;;;;;;;10.50;99.90;;;;;;5003730;28;19925;-76
2022/10/26 04:52:34;;;;;;;;;;;10.50;99.90;;;;;;5008496;28;20628;-73
2022/10/26 04:55:05;;;;;;;;;;;10.50;99.90;;;;;;4991253;28;19932;-75
2022/10/26 04:57:37;;;;;;;;;;;10.50;99.90;;;;;;4988712;28;20058;-75
2022/10/26 05:00:09;;;;;;;;;;;10.50;99.90;;;;;;5005884;28;19929;-74
2022/10/26 05:02:41;;;;;;;;;;;10.60;99.90;;;;;;5020813;28;20480;-73
2022/10/26 05:05:12;;;;;;;;;;;10.60;99.90;;;;;;5010158;28;19948;-74
2022/10/26 05:07:52;;;;;;;;;;;10.70;99.90;;;;;;5010858;28;20293;-75
2022/10/26 05:10:24;;;;;;;;;;;10.70;99.90;;;;;;5008426;28;20368;-74
2022/10/26 05:12:56;;;;;;;;;;;10.70;99.90;;;;;;4988429;28;19936;-75
2022/10/26 05:15:28;;;;;;;;;;;10.70;99.90;;;;;;5023929;28;19932;-73
2022/10/26 05:18:01;;;;;;;;;;;10.80;99.90;;;;;;4998298;28;20450;-75
2022/10/26 05:20:34;;;;;;;;;;;10.80;99.90;;;;;;4986365;28;19933;-75
2022/10/26 05:23:09;;;;;;;;;;;10.80;99.90;;;;;;4991250;28;19926;-75
2022/10/26 05:25:40;;;;;;;;;;;10.80;99.90;;;;;;5009410;28;20388;-75
2022/10/26 05:28:13;;;;;;;;;;;10.80;99.90;;;;;;4990426;28;19933;-75
2022/10/26 05:30:45;;;;;;;;;;;10.90;99.90;;;;;;4987854;28;19992;-75
2022/10/26 05:33:16;;;;;;;;;;;10.90;99.90;;;;;;4988839;28;19991;-76
2022/10/26 05:35:52;;;;;;;;;;;10.90;99.90;;;;;;5009861;28;19933;-73
2022/10/26 05:38:23;;;;;;;;;;;11.00;99.90;;;;;;5024731;28;19988;-74
2022/10/26 05:40:55;;;;;;;;;;;11.00;99.90;;;;;;5010919;28;19926;-75
2022/10/26 05:43:27;;;;;;;;;;;11.00;99.90;;;;;;4993827;28;19930;-74
2022/10/26 05:45:58;;;;;;;;;;;11.00;99.90;;;;;;5008810;28;19929;-74
2022/10/26 05:48:30;;;;;;;;;;;11.00;99.90;;;;;;5020879;28;19933;-74
2022/10/26 05:51:02;;;;;;;;;;;11.10;99.90;;;;;;4992111;28;19926;-74
2022/10/26 05:53:33;;;;;;;;;;;11.20;99.90;;;;;;5001277;28;19996;-75
2022/10/26 05:56:31;;;;;;;;;;;11.20;99.90;;;;;;5010362;28;19934;-74
2022/10/26 05:59:04;;;;;;;;;;;11.20;99.90;;;;;;4993870;28;19929;-75
2022/10/26 06:01:39;;;;;;;;;;;11.20;99.90;;;;;;5022596;28;19925;-74
2022/10/26 06:04:13;;;;;;;;;;;11.20;99.90;;;;;;5009829;28;19933;-73
2022/10/26 06:06:47;;;;;;;;;;;11.20;99.90;;;;;;4991597;28;20273;-74
2022/10/26 06:09:13;;;;;;;;;;;11.20;99.90;;;;;;5008806;28;19929;-73
2022/10/26 06:11:45;;;;;;;;;;;11.20;99.90;;;;;;5008802;28;19957;-74
2022/10/26 06:14:17;;;;;;;;;;;11.20;99.90;;;;;;5008618;28;19929;-73
2022/10/26 06:16:48;;;;;;;;;;;11.20;99.90;;;;;;5010399;28;19929;-75
2022/10/26 06:19:32;;;;;;;;;;;11.20;99.90;;;;;;4997315;28;19973;-75
2022/10/26 06:22:16;;;;;;;;;;;11.30;99.90;;;;;;4990601;28;19933;-74
2022/10/26 06:24:57;;;;;;;;;;;11.30;99.90;;;;;;5008900;28;19937;-75
2022/10/26 06:27:28;;;;;;;;;;;11.40;99.90;;;;;;5004745;28;19960;-74
2022/10/26 06:30:02;;;;;;;;;;;11.40;99.90;;;;;;4999425;28;19930;-76
2022/10/26 06:32:33;;;;;;;;;;;11.40;99.90;;;;;;5022375;28;20380;-76
2022/10/26 06:35:24;;;;;;;;;;;11.50;99.90;;;;;;5023506;28;19925;-75
2022/10/26 06:37:57;;;;;;;;;;;11.50;99.90;;;;;;4985891;28;20008;-76
2022/10/26 06:40:31;;;;;;;;;;;11.50;99.90;;;;;;5006930;28;20334;-74
2022/10/26 06:43:03;;;;;;;;;;;11.50;99.90;;;;;;4991878;28;19930;-72
2022/10/26 06:45:29;;;;;;;;;;;11.50;99.90;;;;;;5009124;28;20355;-76
2022/10/26 06:48:09;;;;;;;;;;;11.60;99.90;;;;;;5005932;28;19925;-76
2022/10/26 06:50:49;;;;;;;;;;;11.60;99.90;;;;;;4990501;28;19934;-77
2022/10/26 06:53:32;;;;;;;;;;;11.50;99.90;;;;;;5014655;28;19925;-74
2022/10/26 06:55:59;;;;;;;;;;;11.60;99.90;;;;;;4990645;28;19973;-75
2022/10/26 06:58:33;;;;;;;;;;;11.50;99.90;;;;;;5011095;28;19930;-76
2022/10/26 07:01:05;;;;;;;;;;;11.50;99.90;;;;;;4992901;28;19926;-74
2022/10/26 07:03:32;;;;;;;;;;;11.50;99.90;;;;;;4994212;28;19933;-76
2022/10/26 07:06:04;;;;;;;;;;;11.50;99.90;;;;;;4975988;28;19925;-76
2022/10/26 07:08:35;;;;;;;;;;;11.60;99.90;;;;;;5009253;28;19932;-75
2022/10/26 07:11:03;;;;;;;;;;;11.60;99.90;;;;;;5010779;28;19969;-75
2022/10/26 07:13:35;;;;;;;;;;;11.60;99.90;;;;;;5009822;28;19948;-77
2022/10/26 07:16:06;;;;;;;;;;;11.60;99.90;;;;;;5025036;28;19929;-75
2022/10/26 07:18:38;;;;;;;;;;;11.60;99.90;;;;;;5028092;28;19930;-76
2022/10/26 07:21:09;;;;;;;;;;;11.70;99.90;;;;;;5026181;28;19949;-74
2022/10/26 07:23:41;;;;;;;;;;;11.70;99.90;;;;;;4994229;28;19990;-74
2022/10/26 07:26:13;;;;;;;;;;;11.80;99.90;;;;;;5005349;28;19988;-77
2022/10/26 07:28:46;;;;;;;;;;;11.80;99.90;;;;;;5026793;28;19961;-76
2022/10/26 07:31:13;;;;;;;;;;;11.90;99.90;;;;;;5012051;28;19954;-76
2022/10/26 07:33:45;;;;;;;;;;;11.90;99.90;;;;;;4994404;28;19930;-78
2022/10/26 07:36:16;;;;;;;;;;;12.00;99.90;;;;;;4991969;28;20388;-75
2022/10/26 07:38:43;;;;;;;;;;;12.10;99.90;;;;;;4974413;28;19929;-74
2022/10/26 07:41:09;;;;;;;;;;;12.20;99.90;;;;;;5118978;22;19980;-89
2022/10/26 07:43:36;;;;;;;;;;;12.30;99.90;;;;;;4994676;28;20402;-89
2022/10/26 07:46:03;;;;;;;;;;;12.30;99.90;;;;;;5015086;28;19932;-89
2022/10/26 07:48:29;;;;;;;;;;;12.40;99.90;;;;;;4990761;28;19929;-90
2022/10/26 07:50:56;;;;;;;;;;;12.40;99.90;;;;;;4985201;28;19949;-89
2022/10/26 07:53:22;;;;;;;;;;;12.40;99.90;;;;;;4985897;28;19925;-89
2022/10/26 07:55:53;;;;;;;;;;;12.40;99.90;;;;;;5021445;23;19968;-74
2022/10/26 07:58:26;;;;;;;;;;;12.40;99.90;;;;;;5024809;28;19936;-75
2022/10/26 08:00:52;;;;;;;;;;;12.40;99.90;;;;;;5010500;28;19933;-76
2022/10/26 08:03:24;;;;;;;;;;;12.40;99.90;;;;;;5004644;28;19926;-77
2022/10/26 08:05:54;;;;;;;;;;;12.30;99.90;;;;;;5010029;28;19925;-75
2022/10/26 08:08:26;;;;;;;;;;;12.30;99.90;;;;;;5000602;28;19980;-75
2022/10/26 08:10:52;;;;;;;;;;;12.40;99.90;;;;;;5004482;28;19925;-76
2022/10/26 08:13:19;;;;;;;;;;;12.40;99.90;;;;;;5005656;28;19930;-76
2022/10/26 08:15:57;;;;;;;;;;;12.40;99.90;;;;;;5015338;28;19929;-75
2022/10/26 08:18:29;;;;;;;;;;;12.50;99.90;;;;;;4980470;28;19976;-75
2022/10/26 08:21:02;;;;;;;;;;;12.50;99.90;;;;;;5003144;28;19930;-75
2022/10/26 08:23:33;;;;;;;;;;;12.50;99.90;;;;;;5008207;28;19929;-74
2022/10/26 08:26:05;;;;;;;;;;;12.50;99.90;;;;;;5001892;28;19980;-74
2022/10/26 08:28:32;;;;;;;;;;;12.60;99.90;;;;;;5005156;28;19976;-74
2022/10/26 08:31:03;;;;;;;;;;;12.70;99.90;;;;;;5003533;28;19926;-74
2022/10/26 08:33:35;;;;;;;;;;;12.70;99.90;;;;;;4995848;28;20418;-74
2022/10/26 08:36:07;;;;;;;;;;;12.70;99.90;;;;;;4999921;28;19952;-75
2022/10/26 08:38:33;;;;;;;;;;;12.70;99.90;;;;;;5004957;28;19926;-76
2022/10/26 08:41:07;;;;;;;;;;;12.80;99.90;;;;;;4992266;28;19929;-74
2022/10/26 08:43:39;;;;;;;;;;;12.90;99.90;;;;;;5005646;28;19925;-73
2022/10/26 08:46:20;;;;;;;;;;;13.00;99.90;;;;;;4989011;28;19929;-74
2022/10/26 08:48:51;;;;;;;;;;;13.10;99.90;;;;;;5005674;28;20372;-74
2022/10/26 08:51:34;;;;;;;;;;;13.20;99.90;;;;;;5006247;28;20430;-73
2022/10/26 08:54:08;;;;;;;;;;;13.30;99.90;;;;;;5002357;28;19929;-75
2022/10/26 08:56:44;;;;;;;;;;;13.50;99.90;;;;;;5001741;28;19929;-77
2022/10/26 08:59:37;;;;;;;;;;;13.60;99.90;;;;;;5001386;28;19934;-75
2022/10/26 09:02:11;;;;;;;;;;;13.70;99.90;;;;;;4991029;28;19929;-73
2022/10/26 09:04:43;;;;;;;;;;;13.80;99.90;;;;;;5005842;28;19929;-73
2022/10/26 09:07:20;;;;;;;;;;;13.90;99.90;;;;;;4999892;28;19925;-75
2022/10/26 09:09:52;;;;;;;;;;;14.00;99.90;;;;;;5001782;28;19925;-76
2022/10/26 09:12:18;;;;;;;;;;;14.10;99.90;;;;;;5004255;28;19925;-74
2022/10/26 09:14:57;;;;;;;;;;;14.30;99.90;;;;;;4995810;28;19932;-76
2022/10/26 09:17:34;;;;;;;;;;;14.40;99.90;;;;;;5003019;28;19980;-76
2022/10/26 09:20:15;;;;;;;;;;;14.50;99.90;;;;;;5007315;28;19976;-74
2022/10/26 09:23:00;;;;;;;;;;;14.50;99.90;;;;;;5000791;28;20385;-75
2022/10/26 09:25:37;;;;;;;;;;;14.60;99.90;;;;;;4989189;28;19926;-75
2022/10/26 09:28:16;;;;;;;;;;;14.70;99.90;;;;;;4999037;28;19930;-76
2022/10/26 09:30:48;;;;;;;;;;;14.80;99.90;;;;;;4983220;28;19933;-75
2022/10/26 09:33:16;;;;;;;;;;;14.90;99.90;;;;;;5002809;28;19926;-74
2022/10/26 09:35:51;;;;;;;;;;;15.00;99.90;;;;;;5011638;28;19930;-74
2022/10/26 09:38:27;;;;;;;;;;;15.10;99.90;;;;;;4988549;28;19926;-76
2022/10/26 09:41:04;;;;;;;;;;;15.30;99.90;;;;;;4988916;28;20346;-73
2022/10/26 09:43:50;;;;;;;;;;;15.50;99.90;;;;;;4987573;28;19934;-76
2022/10/26 09:46:33;;;;;;;;;;;15.70;99.90;;;;;;4991260;28;19925;-77
2022/10/26 09:49:04;;;;;;;;;;;15.90;99.90;;;;;;5000582;28;19976;-73
2022/10/26 09:51:34;;;;;;;;;;;16.20;99.90;;;;;;5004366;28;19929;-72
2022/10/26 09:54:13;;;;;;;;;;;16.30;99.90;;;;;;4976434;28;19976;-75
2022/10/26 09:56:47;;;;;;;;;;;16.50;99.90;;;;;;4999722;28;19968;-76
2022/10/26 09:59:14;;;;;;;;;;;16.60;99.90;;;;;;4997936;28;19926;-76
2022/10/26 10:01:41;;;;;;;;;;;16.70;99.90;;;;;;5005251;28;19925;-76
2022/10/26 10:04:12;;;;;;;;;;;16.80;99.90;;;;;;4968623;28;19926;-76
2022/10/26 10:06:48;;;;;;;;;;;16.90;99.90;;;;;;4967218;28;19933;-75
2022/10/26 10:09:16;;;;;;;;;;;17.10;99.90;;;;;;5007934;28;19929;-72
2022/10/26 10:11:54;;;;;;;;;;;17.20;99.90;;;;;;5001868;28;19929;-74
2022/10/26 10:14:30;;;;;;;;;;;17.20;99.90;;;;;;4984682;28;19929;-76
2022/10/26 10:17:04;;;;;;;;;;;17.20;99.90;;;;;;4974953;28;19990;-74
2022/10/26 10:19:31;;;;;;;;;;;17.20;99.90;;;;;;4983193;28;19934;-78
2022/10/26 10:22:18;;;;;;;;;;;17.20;99.90;;;;;;5001099;28;19968;-75
2022/10/26 10:24:53;;;;;;;;;;;17.20;99.90;;;;;;4988771;28;20007;-77
2022/10/26 10:27:25;;;;;;;;;;;17.20;99.90;;;;;;4984238;28;20347;-76
2022/10/26 10:29:57;;;;;;;;;;;17.20;99.90;;;;;;5003059;28;19979;-75
2022/10/26 10:32:26;;;;;;;;;;;17.10;99.90;;;;;;4981330;28;19926;-74
2022/10/26 10:34:59;;;;;;;;;;;17.10;99.90;;;;;;4992210;28;20322;-77
2022/10/26 10:37:43;;;;;;;;;;;17.10;99.90;;;;;;4980959;28;19930;-75
2022/10/26 10:40:18;;;;;;;;;;;17.10;99.90;;;;;;5006530;28;19926;-75
2022/10/26 10:42:50;;;;;;;;;;;17.10;99.90;;;;;;5009846;28;19996;-76
2022/10/26 10:45:22;;;;;;;;;;;17.10;99.90;;;;;;5002065;28;19925;-74
2022/10/26 10:48:12;;;;;;;;;;;17.20;99.90;;;;;;5007306;28;19933;-77
2022/10/26 10:51:00;;;;;;;;;;;17.20;99.90;;;;;;4991805;28;19975;-71
2022/10/26 10:53:33;;;;;;;;;;;17.30;99.90;;;;;;4992804;28;20023;-75
2022/10/26 10:56:05;;;;;;;;;;;17.40;99.90;;;;;;5009003;28;19929;-75
2022/10/26 10:58:57;;;;;;;;;;;17.40;99.90;;;;;;5008701;28;19930;-73
2022/10/26 11:01:37;;;;;;;;;;;17.50;99.90;;;;;;4988566;28;19930;-75
2022/10/26 11:04:14;;;;;;;;;;;17.60;99.90;;;;;;5011107;28;19933;-73
2022/10/26 11:06:47;;;;;;;;;;;17.80;99.90;;;;;;5010142;28;19926;-73
2022/10/26 11:09:15;;;;;;;;;;;17.90;99.90;;;;;;4984731;28;19930;-75
2022/10/26 11:12:08;;;;;;;;;;;17.90;99.90;;;;;;5009645;28;19929;-76
2022/10/26 11:14:41;;;;;;;;;;;17.90;99.90;;;;;;4983879;28;19930;-75
2022/10/26 11:17:17;;;;;;;;;;;17.80;99.90;;;;;;4992473;28;19926;-77
2022/10/26 11:19:48;;;;;;;;;;;17.70;99.90;;;;;;4992204;28;19970;-75
2022/10/26 11:22:24;;;;;;;;;;;17.70;99.90;;;;;;4991365;28;19932;-76
2022/10/26 11:25:02;;;;;;;;;;;17.70;99.90;;;;;;4986006;28;19932;-73
2022/10/26 11:27:34;;;;;;;;;;;17.60;99.90;;;;;;4999713;28;19972;-74
2022/10/26 11:30:09;;;;;;;;;;;17.60;99.90;;;;;;4984222;28;19933;-75
2022/10/26 11:32:43;;;;;;;;;;;17.60;99.90;;;;;;4987561;28;20431;-76
2022/10/26 11:35:17;;;;;;;;;;;17.60;99.90;;;;;;5011282;28;19926;-72
2022/10/26 11:38:08;;;;;;;;;;;17.70;99.90;;;;;;4972815;28;20731;-73
2022/10/26 11:40:57;;;;;;;;;;;17.70;99.90;;;;;;4995746;28;20395;-74
2022/10/26 11:43:42;;;;;;;;;;;17.80;99.90;;;;;;5006861;28;20299;-73
2022/10/26 11:46:20;;;;;;;;;;;17.90;99.90;;;;;;5005148;28;20384;-76
2022/10/26 11:48:59;;;;;;;;;;;17.90;99.90;;;;;;4993066;28;20339;-74
2022/10/26 11:51:31;;;;;;;;;;;17.90;99.90;;;;;;4987018;28;19971;-77
2022/10/26 11:54:00;;;;;;;;;;;18.00;99.90;;;;;;4995914;28;20370;-74
2022/10/26 11:56:34;;;;;;;;;;;18.00;99.90;;;;;;4985220;28;19953;-74
2022/10/26 11:59:13;;;;;;;;;;;18.00;99.90;;;;;;4999197;28;19933;-73
2022/10/26 12:01:39;;;;;;;;;;;18.00;99.90;;;;;;4989582;28;20020;-75
2022/10/26 12:04:06;;;;;;;;;;;18.00;99.90;;;;;;4990677;28;19960;-76
2022/10/26 12:06:33;;;;;;;;;;;18.10;99.90;;;;;;5002222;28;19926;-73
2022/10/26 12:09:09;;;;;;;;;;;18.10;99.90;;;;;;4989404;28;20347;-74
2022/10/26 12:11:45;;;;;;;;;;;18.10;99.90;;;;;;4977085;28;20422;-72
2022/10/26 12:14:16;;;;;;;;;;;18.10;99.90;;;;;;4981074;28;19929;-74
2022/10/26 12:17:07;;;;;;;;;;;18.20;99.90;;;;;;4975796;28;20335;-73
2022/10/26 12:19:36;;;;;;;;;;;18.30;99.90;;;;;;4998717;28;20060;-74
2022/10/26 12:22:03;;;;;;;;;;;18.30;99.90;;;;;;4981790;28;19926;-75
2022/10/26 12:24:37;;;;;;;;;;;18.30;99.90;;;;;;5013262;28;20338;-75
2022/10/26 12:27:28;;;;;;;;;;;18.40;99.90;;;;;;5002412;28;19925;-75
2022/10/26 12:30:26;;;;;;;;;;;18.30;99.90;;;;;;4985304;28;19925;-75
2022/10/26 12:32:59;;;;;;;;;;;18.30;99.90;;;;;;4974716;28;20483;-73
2022/10/26 12:35:37;;;;;;;;;;;18.30;99.90;;;;;;5011593;28;19932;-76
2022/10/26 12:38:24;;;;;;;;;;;18.30;99.90;;;;;;4995054;28;19936;-74
2022/10/26 12:41:11;;;;;;;;;;;18.30;99.90;;;;;;5007355;28;19925;-75
2022/10/26 12:43:42;;;;;;;;;;;18.30;99.90;;;;;;5006429;28;19925;-73
2022/10/26 12:46:14;;;;;;;;;;;18.30;99.90;;;;;;4995657;28;19980;-74
2022/10/26 12:48:49;;;;;;;;;;;18.30;99.90;;;;;;5010058;28;20406;-75
2022/10/26 12:51:20;;;;;;;;;;;18.30;99.90;;;;;;5010037;28;19980;-74
2022/10/26 12:54:09;;;;;;;;;;;18.30;99.90;;;;;;4986443;28;20066;-73
2022/10/26 12:56:48;;;;;;;;;;;18.50;99.90;;;;;;4995294;28;19926;-75
2022/10/26 12:59:21;;;;;;;;;;;18.70;99.90;;;;;;4994796;28;19926;-75
2022/10/26 13:01:52;;;;;;;;;;;18.80;99.90;;;;;;4992028;28;20078;-75
2022/10/26 13:04:40;;;;;;;;;;;18.80;99.90;;;;;;4968480;28;20308;-74
2022/10/26 13:07:17;;;;;;;;;;;18.90;99.90;;;;;;4992474;28;19925;-73
2022/10/26 13:09:55;;;;;;;;;;;18.90;99.90;;;;;;5005349;28;20351;-72
2022/10/26 13:12:28;;;;;;;;;;;18.80;99.90;;;;;;4999048;28;19929;-75
2022/10/26 13:15:17;;;;;;;;;;;18.70;99.90;;;;;;5002697;28;20393;-75
2022/10/26 13:17:51;;;;;;;;;;;18.80;99.90;;;;;;4993855;28;19933;-75
2022/10/26 13:20:18;;;;;;;;;;;18.90;99.90;;;;;;4978293;28;19925;-75
2022/10/26 13:22:50;;;;;;;;;;;19.20;99.90;;;;;;4986070;28;19925;-75
2022/10/26 13:25:26;;;;;;;;;;;19.20;99.90;;;;;;5006174;28;19934;-76
2022/10/26 13:28:05;;;;;;;;;;;19.20;99.90;;;;;;4962660;28;20343;-75
2022/10/26 13:30:42;;;;;;;;;;;19.10;99.90;;;;;;4986385;28;19995;-76
2022/10/26 13:33:16;;;;;;;;;;;19.00;99.90;;;;;;5003430;28;19930;-76
2022/10/26 13:35:50;;;;;;;;;;;18.90;99.90;;;;;;5002026;28;19937;-74
2022/10/26 13:38:23;;;;;;;;;;;18.80;99.90;;;;;;5009282;28;19926;-76
2022/10/26 13:40:59;;;;;;;;;;;18.70;99.90;;;;;;5003976;28;19932;-75
2022/10/26 13:43:31;;;;;;;;;;;18.60;99.90;;;;;;5006875;28;19925;-75
2022/10/26 13:46:03;;;;;;;;;;;18.60;99.90;;;;;;5009089;28;19930;-75
2022/10/26 13:48:34;;;;;;;;;;;18.60;99.90;;;;;;5009440;28;19980;-74
2022/10/26 13:51:12;;;;;;;;;;;18.70;99.90;;;;;;4991466;28;19929;-75
2022/10/26 13:53:47;;;;;;;;;;;18.70;99.90;;;;;;4968786;28;20384;-75
2022/10/26 13:56:32;;;;;;;;;;;18.70;99.90;;;;;;4981976;28;20292;-75
2022/10/26 13:59:09;;;;;;;;;;;18.60;99.90;;;;;;5006359;28;20392;-74
2022/10/26 14:01:35;;;;;;;;;;;18.50;99.90;;;;;;5007095;28;19925;-74
2022/10/26 14:04:14;;;;;;;;;;;18.40;99.90;;;;;;5000329;28;19976;-76
2022/10/26 14:06:49;;;;;;;;;;;18.40;99.90;;;;;;5005534;28;19980;-73
2022/10/26 14:09:21;;;;;;;;;;;18.30;99.90;;;;;;5007849;28;19975;-76
2022/10/26 14:11:54;;;;;;;;;;;18.30;99.90;;;;;;5007113;28;19926;-76
2022/10/26 14:14:34;;;;;;;;;;;18.30;99.90;;;;;;5001226;28;19976;-76
2022/10/26 14:17:05;;;;;;;;;;;18.20;99.90;;;;;;5005785;28;19984;-75
2022/10/26 14:19:39;;;;;;;;;;;18.20;99.90;;;;;;5002664;28;19929;-74
2022/10/26 14:22:18;;;;;;;;;;;18.20;99.90;;;;;;5001851;28;19968;-76
2022/10/26 14:24:49;;;;;;;;;;;18.20;99.90;;;;;;5008698;28;19980;-74
2022/10/26 14:27:23;;;;;;;;;;;18.10;99.90;;;;;;4998089;28;20343;-73
2022/10/26 14:29:54;;;;;;;;;;;18.10;99.90;;;;;;4998859;28;19926;-74
2022/10/26 14:32:34;;;;;;;;;;;18.00;99.90;;;;;;4999901;28;20293;-75
2022/10/26 14:35:01;;;;;;;;;;;18.00;99.90;;;;;;5006187;28;19925;-73
2022/10/26 14:37:42;;;;;;;;;;;18.00;99.90;;;;;;4990480;28;19925;-75
2022/10/26 14:40:14;;;;;;;;;;;17.90;99.90;;;;;;5010022;28;20012;-73
2022/10/26 14:42:53;;;;;;;;;;;17.90;99.90;;;;;;4983173;28;20265;-75
2022/10/26 14:45:25;;;;;;;;;;;17.90;99.90;;;;;;4957872;28;19932;-74
2022/10/26 14:47:57;;;;;;;;;;;17.90;99.90;;;;;;4989330;28;19980;-75
2022/10/26 14:50:30;;;;;;;;;;;17.80;99.90;;;;;;4993051;28;20066;-75
2022/10/26 14:53:02;;;;;;;;;;;17.80;99.90;;;;;;5001217;28;19980;-71
2022/10/26 14:55:42;;;;;;;;;;;17.80;99.90;;;;;;4986284;28;19980;-72
2022/10/26 14:58:22;;;;;;;;;;;17.80;99.90;;;;;;4984363;28;19979;-74